Terminal Aerodrome Forecast
Issued by NWS Nashville, TN

Home | Current Version | Previous Version | Text Only | Print | Product List | Glossary On
Versions: 1 2 3 4 5 6 7 8 9 10 11 12 13
000
FTUS44 KOHX 261124
TAFCSV
TAF
KCSV 261124Z 2612/2712 22003KT P6SM FEW100
     FM261500 26008KT P6SM SCT060 BKN120
     FM261800 32010KT P6SM VCSH SCT015 BKN030=

USA.gov is the U.S. government's official web portal to all federal, state and local government web resources and services.